Time;durP1;ratioP1;P1;durP2;ratioP2;P2;SDS_P1;SDS_P2;PMS_P1;PMS_P2;Temp;Humidity;BMP_temperature;BMP_pressure;BME280_temperature;BME280_humidity;BME280_pressure;Samples;Min_cycle;Max_cycle;Signal;HPM_P1;HPM_P2
2023/03/03 00:02:00;;;;;;;;;;;;;;;2.03;76.32;101863.78;4194348;28;20023;-65
2023/03/03 00:04:04;;;;;;;;;;;;;;;2.06;76.31;101869.75;4194710;28;20335;-64
2023/03/03 00:06:06;;;;;;;;;;;;;;;2.08;75.95;101865.19;4193665;28;20019;-65
2023/03/03 00:08:09;;;;;;;;;;;;;;;2.09;75.60;101866.91;4194258;28;20015;-65
2023/03/03 00:10:11;;;;;;;;;;;;;;;2.09;75.46;101866.91;4193864;28;20008;-65
2023/03/03 00:12:18;;;;;;;;;;;;;;;2.04;74.97;101881.44;4194782;28;20011;-65
2023/03/03 00:14:22;;;;;;;;;;;;;;;2.02;74.94;101886.88;4193549;28;20111;-64
2023/03/03 00:16:25;;;;;;;;;;;;;;;2.05;75.04;101896.50;4195324;28;20023;-65
2023/03/03 00:18:29;;;;;;;;;;;;;;;2.05;74.58;101892.03;4194940;28;20047;-64
2023/03/03 00:20:37;;;;;;;;;;;;;;;2.02;74.54;101889.53;4194388;28;20031;-64
2023/03/03 00:22:39;;;;;;;;;;;;;;;2.00;74.39;101890.59;4195183;28;20015;-64
2023/03/03 00:24:41;;;;;;;;;;;;;;;2.00;74.07;101893.28;4168620;28;20016;-63
2023/03/03 00:26:44;;;;;;;;;;;;;;;1.93;73.80;101877.66;4193968;28;20027;-64
2023/03/03 00:28:47;;;;;;;;;;;;;;;1.89;73.95;101884.09;4189739;28;20030;-64
2023/03/03 00:30:49;;;;;;;;;;;;;;;1.85;73.99;101879.94;4200412;28;20031;-64
2023/03/03 00:32:51;;;;;;;;;;;;;;;1.82;73.89;101884.56;4192782;28;20015;-64
2023/03/03 00:34:54;;;;;;;;;;;;;;;1.80;73.99;101879.31;4194179;28;20015;-64
2023/03/03 00:36:57;;;;;;;;;;;;;;;1.76;74.02;101873.34;4156351;28;20398;-63
2023/03/03 00:39:00;;;;;;;;;;;;;;;1.78;73.98;101874.09;4212795;28;20022;-64
2023/03/03 00:41:02;;;;;;;;;;;;;;;1.76;73.84;101867.16;4193892;28;20360;-63
2023/03/03 00:43:12;;;;;;;;;;;;;;;1.75;73.86;101868.09;4197401;28;20030;-63
2023/03/03 00:45:25;;;;;;;;;;;;;;;1.78;73.66;101865.25;4197193;28;20367;-64
2023/03/03 00:47:28;;;;;;;;;;;;;;;1.78;73.70;101860.78;4205073;28;20024;-64
2023/03/03 00:49:30;;;;;;;;;;;;;;;1.80;73.98;101858.91;4196917;28;20012;-64
2023/03/03 00:51:33;;;;;;;;;;;;;;;1.82;73.65;101864.13;4196859;28;20440;-64
2023/03/03 00:53:36;;;;;;;;;;;;;;;1.80;73.49;101861.56;4205231;28;20468;-64
2023/03/03 00:55:38;;;;;;;;;;;;;;;1.75;73.53;101866.28;4187680;28;20007;-64
2023/03/03 00:57:40;;;;;;;;;;;;;;;1.77;73.60;101856.41;4188928;28;20026;-64
2023/03/03 00:59:45;;;;;;;;;;;;;;;1.81;73.17;101846.44;4187776;28;20012;-64
2023/03/03 01:01:47;;;;;;;;;;;;;;;1.83;72.89;101855.16;4187978;28;20012;-64
2023/03/03 01:03:49;;;;;;;;;;;;;;;1.84;72.67;101853.38;4186389;28;20367;-64
2023/03/03 01:05:51;;;;;;;;;;;;;;;1.80;72.87;101852.69;4180293;28;20004;-64
2023/03/03 01:07:53;;;;;;;;;;;;;;;1.77;72.87;101853.75;4166729;28;20036;-64
2023/03/03 01:09:56;;;;;;;;;;;;;;;1.77;72.82;101850.22;4166241;28;20423;-64
2023/03/03 01:11:58;;;;;;;;;;;;;;;1.76;72.85;101848.50;4180535;28;20020;-64
2023/03/03 01:14:00;;;;;;;;;;;;;;;1.75;72.90;101847.63;4182610;28;20019;-64
2023/03/03 01:16:02;;;;;;;;;;;;;;;1.73;72.88;101846.03;4181098;28;20011;-64
2023/03/03 01:18:04;;;;;;;;;;;;;;;1.70;72.83;101838.22;4176671;28;20020;-64
2023/03/03 01:20:06;;;;;;;;;;;;;;;1.73;73.19;101844.22;4174265;28;20012;-63
2023/03/03 01:22:08;;;;;;;;;;;;;;;1.74;72.98;101845.06;4197572;28;20011;-64
2023/03/03 01:24:10;;;;;;;;;;;;;;;1.76;73.05;101838.72;4180837;28;20019;-64
2023/03/03 01:26:14;;;;;;;;;;;;;;;1.79;72.75;101843.00;4182379;28;20447;-64
2023/03/03 01:28:16;;;;;;;;;;;;;;;1.75;72.34;101842.31;4164872;28;19929;-64
2023/03/03 01:30:18;;;;;;;;;;;;;;;1.65;72.39;101833.19;4178111;28;20003;-64
2023/03/03 01:32:20;;;;;;;;;;;;;;;1.64;72.72;101831.47;4196882;28;20486;-64
2023/03/03 01:34:22;;;;;;;;;;;;;;;1.64;72.82;101839.44;4177906;28;20028;-64
2023/03/03 01:36:24;;;;;;;;;;;;;;;1.66;72.88;101840.19;4182540;28;20024;-64
2023/03/03 01:38:26;;;;;;;;;;;;;;;1.72;72.76;101839.84;4196975;28;20015;-64
2023/03/03 01:40:30;;;;;;;;;;;;;;;1.75;72.67;101825.47;4180763;28;20382;-64
2023/03/03 01:42:33;;;;;;;;;;;;;;;1.80;72.63;101826.94;4200864;28;20538;-64
2023/03/03 01:44:35;;;;;;;;;;;;;;;1.82;72.27;101815.31;4181340;28;20024;-64
2023/03/03 01:46:55;;;;;;;;;;;;;;;1.85;71.97;101812.44;4182043;28;20020;-64
2023/03/03 01:49:01;;;;;;;;;;;;;;;1.85;71.79;101815.13;4196619;28;20369;-64
2023/03/03 01:51:04;;;;;;;;;;;;;;;1.87;71.91;101815.91;4181456;28;20455;-64
2023/03/03 01:53:06;;;;;;;;;;;;;;;1.87;71.88;101822.06;4165938;28;19975;-64
2023/03/03 01:55:11;;;;;;;;;;;;;;;1.87;71.88;101819.41;4187751;28;20003;-64
2023/03/03 01:57:15;;;;;;;;;;;;;;;1.85;72.04;101809.78;4197018;28;20023;-63
2023/03/03 01:59:20;;;;;;;;;;;;;;;1.82;72.23;101812.63;4161987;28;20035;-63
2023/03/03 02:01:23;;;;;;;;;;;;;;;1.81;72.34;101811.78;4173724;28;20439;-64
2023/03/03 02:03:25;;;;;;;;;;;;;;;1.79;72.32;101811.03;4196634;28;20020;-63
2023/03/03 02:05:27;;;;;;;;;;;;;;;1.80;72.42;101810.06;4181334;28;20003;-63
2023/03/03 02:07:29;;;;;;;;;;;;;;;1.81;72.66;101811.78;4182149;28;19968;-63
2023/03/03 02:09:32;;;;;;;;;;;;;;;1.84;72.64;101816.09;4196364;28;20023;-64
2023/03/03 02:11:35;;;;;;;;;;;;;;;1.83;72.50;101804.56;4196490;28;20036;-63
2023/03/03 02:13:37;;;;;;;;;;;;;;;1.80;72.35;101804.75;4181645;28;20023;-63
2023/03/03 02:15:40;;;;;;;;;;;;;;;1.76;72.43;101804.09;4181407;28;20012;-63
2023/03/03 02:17:42;;;;;;;;;;;;;;;1.77;72.64;101810.25;4181462;28;20012;-63
2023/03/03 02:19:47;;;;;;;;;;;;;;;1.75;72.47;101822.81;4180960;28;20012;-63
2023/03/03 02:21:51;;;;;;;;;;;;;;;1.73;72.66;101827.38;4180584;28;19959;-63
2023/03/03 02:23:53;;;;;;;;;;;;;;;1.77;72.79;101823.56;4173793;28;20028;-63
2023/03/03 02:26:04;;;;;;;;;;;;;;;1.77;72.76;101827.13;4180194;28;20534;-63
2023/03/03 02:28:07;;;;;;;;;;;;;;;1.78;72.75;101826.16;4171112;28;20438;-64
2023/03/03 02:30:12;;;;;;;;;;;;;;;1.82;72.80;101815.31;4180011;28;20343;-64
2023/03/03 02:32:14;;;;;;;;;;;;;;;1.86;72.83;101816.84;4197140;28;20011;-64
2023/03/03 02:34:16;;;;;;;;;;;;;;;1.89;72.73;101825.50;4178887;28;20007;-66
2023/03/03 02:36:19;;;;;;;;;;;;;;;1.93;72.70;101829.69;4179242;28;20024;-64
2023/03/03 02:38:22;;;;;;;;;;;;;;;1.97;72.41;101831.22;4173299;28;20020;-64
2023/03/03 02:40:24;;;;;;;;;;;;;;;2.00;72.23;101830.16;4190497;28;20028;-65
2023/03/03 02:42:27;;;;;;;;;;;;;;;2.03;72.06;101835.31;4181191;28;20450;-64
2023/03/03 02:44:33;;;;;;;;;;;;;;;1.98;71.93;101826.75;4167741;28;19982;-62
2023/03/03 02:46:35;;;;;;;;;;;;;;;1.96;72.01;101821.50;4196636;28;20007;-64
2023/03/03 02:48:37;;;;;;;;;;;;;;;1.98;72.06;101824.09;4195967;28;20015;-63
2023/03/03 02:50:39;;;;;;;;;;;;;;;2.02;72.03;101816.75;4195303;28;20015;-64
2023/03/03 02:52:41;;;;;;;;;;;;;;;2.02;72.04;101824.75;4176811;28;20015;-64
2023/03/03 02:54:43;;;;;;;;;;;;;;;2.00;72.24;101824.84;4187793;28;20020;-64
2023/03/03 02:56:45;;;;;;;;;;;;;;;2.00;72.09;101827.50;4184849;28;20024;-65
2023/03/03 02:58:49;;;;;;;;;;;;;;;2.02;72.19;101835.41;4166496;28;20410;-64
2023/03/03 03:00:51;;;;;;;;;;;;;;;2.00;72.29;101827.50;4176352;28;20074;-64
2023/03/03 03:02:57;;;;;;;;;;;;;;;2.00;72.17;101818.66;4177142;28;20031;-65
2023/03/03 03:05:00;;;;;;;;;;;;;;;2.01;72.24;101812.34;4179249;28;20020;-64
2023/03/03 03:07:02;;;;;;;;;;;;;;;2.04;72.28;101817.50;4177675;28;20466;-64
2023/03/03 03:09:07;;;;;;;;;;;;;;;2.04;72.10;101817.50;4186120;28;20023;-63
2023/03/03 03:11:09;;;;;;;;;;;;;;;1.97;72.25;101825.03;4195304;28;20011;-64
2023/03/03 03:13:13;;;;;;;;;;;;;;;1.95;72.35;101833.13;4179448;28;19959;-64
2023/03/03 03:15:18;;;;;;;;;;;;;;;1.92;72.65;101835.13;4179369;28;19952;-64
2023/03/03 03:17:20;;;;;;;;;;;;;;;1.93;72.95;101844.84;4196105;28;20027;-64
2023/03/03 03:19:22;;;;;;;;;;;;;;;1.96;72.80;101834.00;4169530;28;20029;-64
2023/03/03 03:21:24;;;;;;;;;;;;;;;1.99;72.82;101828.44;4178812;28;20015;-64
2023/03/03 03:23:27;;;;;;;;;;;;;;;2.00;73.02;101831.97;4181058;28;20395;-64
2023/03/03 03:25:29;;;;;;;;;;;;;;;1.96;72.89;101836.66;4172465;28;20025;-64
2023/03/03 03:27:31;;;;;;;;;;;;;;;1.96;72.82;101849.97;4174933;28;20335;-64
2023/03/03 03:29:34;;;;;;;;;;;;;;;1.94;72.75;101855.41;4178964;28;20020;-64
2023/03/03 03:31:38;;;;;;;;;;;;;;;1.95;73.05;101853.59;4179183;28;20023;-64
2023/03/03 03:33:40;;;;;;;;;;;;;;;1.94;73.09;101844.75;4180175;28;20015;-64
2023/03/03 03:35:44;;;;;;;;;;;;;;;1.96;73.03;101842.81;4179256;28;20000;-64
2023/03/03 03:37:48;;;;;;;;;;;;;;;1.95;72.92;101840.25;4181992;28;20028;-64
2023/03/03 03:39:50;;;;;;;;;;;;;;;1.95;73.29;101846.44;4194303;28;20020;-64
2023/03/03 03:41:53;;;;;;;;;;;;;;;1.91;73.05;101846.72;4188510;28;20467;-64
2023/03/03 03:43:56;;;;;;;;;;;;;;;1.92;73.34;101846.63;4192748;28;20007;-65
2023/03/03 03:46:00;;;;;;;;;;;;;;;1.93;73.22;101852.81;4178634;28;20032;-64
2023/03/03 03:48:06;;;;;;;;;;;;;;;1.93;73.02;101853.69;4194972;28;19955;-64
2023/03/03 03:50:10;;;;;;;;;;;;;;;1.95;73.14;101851.75;4194889;28;20394;-64
2023/03/03 03:52:12;;;;;;;;;;;;;;;2.01;72.86;101847.00;4166880;28;20024;-64
2023/03/03 03:54:14;;;;;;;;;;;;;;;2.02;72.76;101844.25;4166875;28;20016;-64
2023/03/03 03:56:17;;;;;;;;;;;;;;;2.04;72.76;101844.16;4178259;28;20016;-64
2023/03/03 03:58:21;;;;;;;;;;;;;;;2.03;72.46;101843.31;4178750;28;20038;-63
2023/03/03 04:00:29;;;;;;;;;;;;;;;2.02;72.46;101832.75;4178530;28;20339;-64
2023/03/03 04:02:34;;;;;;;;;;;;;;;2.00;72.63;101838.16;4178552;28;19960;-64
2023/03/03 04:04:45;;;;;;;;;;;;;;;1.98;72.39;101832.06;4179821;28;20008;-64
2023/03/03 04:06:48;;;;;;;;;;;;;;;1.95;72.78;101826.94;4162562;28;20092;-64
2023/03/03 04:08:50;;;;;;;;;;;;;;;1.95;72.99;101816.28;4178732;28;20396;-64
2023/03/03 04:10:54;;;;;;;;;;;;;;;1.96;72.92;101816.19;4177633;28;20019;-64
2023/03/03 04:12:56;;;;;;;;;;;;;;;1.98;72.97;101818.75;4178486;28;20400;-64
2023/03/03 04:14:59;;;;;;;;;;;;;;;1.96;72.92;101816.19;4194975;28;20031;-65
2023/03/03 04:17:01;;;;;;;;;;;;;;;1.97;72.82;101819.69;4193222;28;20040;-64
2023/03/03 04:19:03;;;;;;;;;;;;;;;1.97;72.58;101817.91;4185051;28;20035;-64
2023/03/03 04:21:11;;;;;;;;;;;;;;;1.92;72.55;101811.13;4187322;28;20015;-64
2023/03/03 04:23:13;;;;;;;;;;;;;;;1.88;72.87;101817.59;4190160;28;20011;-64
2023/03/03 04:25:17;;;;;;;;;;;;;;;1.86;72.92;101815.03;4194400;28;20035;-64
2023/03/03 04:27:20;;;;;;;;;;;;;;;1.83;72.96;101807.22;4195005;28;20019;-64
2023/03/03 04:29:22;;;;;;;;;;;;;;;1.84;72.83;101813.44;4177757;28;20090;-64
2023/03/03 04:31:25;;;;;;;;;;;;;;;1.79;72.99;101813.72;4177914;28;20020;-64
2023/03/03 04:33:27;;;;;;;;;;;;;;;1.77;73.11;101807.59;4195322;28;20023;-64
2023/03/03 04:35:29;;;;;;;;;;;;;;;1.67;72.92;101817.94;4184395;28;20462;-64
2023/03/03 04:37:33;;;;;;;;;;;;;;;1.58;73.28;101813.19;4178504;28;20434;-64
2023/03/03 04:39:36;;;;;;;;;;;;;;;1.56;73.75;101809.75;4194603;28;20019;-65
2023/03/03 04:41:39;;;;;;;;;;;;;;;1.57;73.92;101806.16;4190603;28;20019;-63
2023/03/03 04:43:41;;;;;;;;;;;;;;;1.56;74.15;101807.94;4195031;28;20015;-64
2023/03/03 04:45:45;;;;;;;;;;;;;;;1.58;74.26;101806.06;4194596;28;20019;-64
2023/03/03 04:47:48;;;;;;;;;;;;;;;1.58;74.11;101806.06;4178041;28;20008;-62
2023/03/03 04:49:50;;;;;;;;;;;;;;;1.56;74.09;101805.28;4178099;28;20328;-64
2023/03/03 04:51:52;;;;;;;;;;;;;;;1.53;74.06;101804.63;4194534;28;20064;-65
2023/03/03 04:53:55;;;;;;;;;;;;;;;1.53;74.08;101815.28;4165178;28;20426;-64
2023/03/03 04:55:57;;;;;;;;;;;;;;;1.44;74.23;101809.56;4183738;28;20029;-65
2023/03/03 04:58:00;;;;;;;;;;;;;;;1.49;74.67;101821.72;4195252;28;20015;-64
2023/03/03 05:00:03;;;;;;;;;;;;;;;1.50;74.48;101818.13;4174556;28;20435;-66
2023/03/03 05:02:06;;;;;;;;;;;;;;;1.48;74.42;101818.22;4179733;28;20454;-64
2023/03/03 05:04:08;;;;;;;;;;;;;;;1.40;74.25;101809.81;4172148;28;20474;-65
2023/03/03 05:06:10;;;;;;;;;;;;;;;1.36;74.58;101818.94;4177413;28;20011;-64
2023/03/03 05:08:12;;;;;;;;;;;;;;;1.28;74.52;101813.22;4177652;28;20024;-65
2023/03/03 05:10:17;;;;;;;;;;;;;;;1.19;74.99;101810.16;4176717;28;20020;-65
2023/03/03 05:12:19;;;;;;;;;;;;;;;1.21;75.10;101807.41;4187898;28;20011;-64
2023/03/03 05:14:21;;;;;;;;;;;;;;;1.22;75.01;101812.63;4179444;28;20012;-64
2023/03/03 05:16:23;;;;;;;;;;;;;;;1.21;75.30;101799.41;4179106;28;20369;-64
2023/03/03 05:18:25;;;;;;;;;;;;;;;1.23;75.12;101800.19;4175880;28;20027;-64
2023/03/03 05:20:27;;;;;;;;;;;;;;;1.21;75.16;101799.41;4179083;28;20357;-65
2023/03/03 05:22:29;;;;;;;;;;;;;;;1.18;75.36;101807.59;4181315;28;20015;-64
2023/03/03 05:24:31;;;;;;;;;;;;;;;1.16;75.35;101813.00;4177003;28;20023;-65
2023/03/03 05:26:34;;;;;;;;;;;;;;;1.18;75.54;101810.25;4178323;28;20442;-63
2023/03/03 05:28:36;;;;;;;;;;;;;;;1.17;75.39;101814.69;4182372;28;19968;-65
2023/03/03 05:30:38;;;;;;;;;;;;;;;1.16;75.59;101817.44;4175876;28;20011;-64
2023/03/03 05:32:40;;;;;;;;;;;;;;;1.13;75.63;101813.16;4174837;28;19959;-65
2023/03/03 05:34:45;;;;;;;;;;;;;;;1.12;75.67;101829.22;4174577;28;20019;-65
2023/03/03 05:36:47;;;;;;;;;;;;;;;1.07;75.73;101818.84;4175809;28;20375;-65
2023/03/03 05:38:49;;;;;;;;;;;;;;;1.07;75.81;101821.50;4179416;28;20039;-64
2023/03/03 05:40:51;;;;;;;;;;;;;;;1.10;75.96;101823.09;4181370;28;20031;-64
2023/03/03 05:42:54;;;;;;;;;;;;;;;1.11;76.04;101822.19;4182327;28;20019;-64
2023/03/03 05:44:56;;;;;;;;;;;;;;;1.13;75.82;101818.50;4179511;28;20466;-64
2023/03/03 05:46:58;;;;;;;;;;;;;;;1.12;75.56;101824.75;4182315;28;20019;-63
2023/03/03 05:49:00;;;;;;;;;;;;;;;1.11;75.28;101831.00;4179507;28;20020;-64
2023/03/03 05:51:01;;;;;;;;;;;;;;;1.06;75.38;101833.09;4181238;28;20011;-64
2023/03/03 05:53:03;;;;;;;;;;;;;;;1.00;75.71;101834.28;4181901;28;20012;-63
2023/03/03 05:55:06;;;;;;;;;;;;;;;1.00;76.11;101846.72;4181596;28;20435;-65
2023/03/03 05:57:08;;;;;;;;;;;;;;;1.02;76.36;101853.69;4178763;28;20015;-65
2023/03/03 05:59:11;;;;;;;;;;;;;;;1.05;76.26;101845.53;4181690;28;20051;-64
2023/03/03 06:01:13;;;;;;;;;;;;;;;1.05;75.91;101848.19;4180765;28;20024;-65
2023/03/03 06:03:17;;;;;;;;;;;;;;;1.08;75.80;101849.81;4181047;28;20027;-64
2023/03/03 06:05:19;;;;;;;;;;;;;;;1.07;75.70;101848.13;4181330;28;20007;-63
2023/03/03 06:07:21;;;;;;;;;;;;;;;1.06;75.90;101841.06;4181826;28;20012;-63
2023/03/03 06:09:23;;;;;;;;;;;;;;;1.08;75.93;101848.03;4181278;28;20024;-65
2023/03/03 06:11:25;;;;;;;;;;;;;;;1.03;76.16;101849.22;4182308;28;19963;-64
2023/03/03 06:13:27;;;;;;;;;;;;;;;1.06;76.21;101843.72;4181766;28;20023;-63
2023/03/03 06:15:30;;;;;;;;;;;;;;;1.10;76.30;101855.91;4181041;28;20015;-64
2023/03/03 06:17:32;;;;;;;;;;;;;;;1.11;76.15;101854.09;4181483;28;20023;-64
2023/03/03 06:19:36;;;;;;;;;;;;;;;1.10;75.85;101837.28;4179226;28;20020;-63
2023/03/03 06:21:38;;;;;;;;;;;;;;;1.11;75.82;101849.63;4178968;28;20452;-62
2023/03/03 06:23:40;;;;;;;;;;;;;;;1.08;75.52;101850.69;4179446;28;20357;-63
2023/03/03 06:25:43;;;;;;;;;;;;;;;1.08;75.73;101855.13;4179904;28;20039;-64
2023/03/03 06:27:45;;;;;;;;;;;;;;;1.08;75.68;101858.66;4181353;28;20023;-64
2023/03/03 06:29:47;;;;;;;;;;;;;;;1.06;75.98;101862.34;4178147;28;20025;-63
2023/03/03 06:31:50;;;;;;;;;;;;;;;1.05;76.28;101860.63;4181280;28;20066;-65
2023/03/03 06:33:52;;;;;;;;;;;;;;;1.07;76.33;101862.25;4172567;28;20542;-63
2023/03/03 06:35:54;;;;;;;;;;;;;;;1.07;76.45;101867.59;4169883;28;20020;-65
2023/03/03 06:37:56;;;;;;;;;;;;;;;1.11;76.44;101867.41;4163832;28;20036;-64
2023/03/03 06:39:58;;;;;;;;;;;;;;;1.11;76.31;101872.72;4163636;28;20016;-64
2023/03/03 06:42:00;;;;;;;;;;;;;;;1.11;76.08;101873.59;4177680;28;20512;-64
2023/03/03 06:44:02;;;;;;;;;;;;;;;1.12;76.06;101867.31;4179733;28;20015;-64
2023/03/03 06:46:05;;;;;;;;;;;;;;;1.12;75.96;101866.47;4175602;28;20011;-65
2023/03/03 06:48:08;;;;;;;;;;;;;;;1.11;75.90;101862.94;4163572;28;20021;-64
2023/03/03 06:50:10;;;;;;;;;;;;;;;1.11;76.05;101867.41;4163073;28;20012;-64
2023/03/03 06:52:14;;;;;;;;;;;;;;;1.09;76.23;101872.81;4176473;28;20462;-64
2023/03/03 06:54:16;;;;;;;;;;;;;;;1.07;76.21;101877.38;4164026;28;20017;-64
2023/03/03 06:56:18;;;;;;;;;;;;;;;1.06;76.22;101873.84;4166462;28;19976;-64
2023/03/03 06:58:21;;;;;;;;;;;;;;;1.08;76.38;101892.38;4164890;28;20016;-64
2023/03/03 07:00:23;;;;;;;;;;;;;;;1.01;75.98;101888.38;4172901;28;20023;-64
2023/03/03 07:02:25;;;;;;;;;;;;;;;0.94;76.41;101898.50;4169746;28;20007;-64
2023/03/03 07:04:30;;;;;;;;;;;;;;;0.91;76.73;101888.03;4166354;28;20336;-63
2023/03/03 07:06:32;;;;;;;;;;;;;;;0.90;76.61;101900.47;4176887;28;20016;-64
2023/03/03 07:08:34;;;;;;;;;;;;;;;0.81;76.69;101911.59;4165465;28;20360;-64
2023/03/03 07:10:36;;;;;;;;;;;;;;;0.80;76.86;101906.38;4166376;28;20008;-64
2023/03/03 07:12:38;;;;;;;;;;;;;;;0.82;77.15;101908.00;4188412;28;20028;-64
2023/03/03 07:14:40;;;;;;;;;;;;;;;0.82;77.37;101901.84;4168716;28;20033;-63
2023/03/03 07:16:43;;;;;;;;;;;;;;;0.80;77.60;101901.94;4166824;28;20360;-64
2023/03/03 07:18:49;;;;;;;;;;;;;;;0.81;77.75;101900.13;4180676;28;20027;-64
2023/03/03 07:20:52;;;;;;;;;;;;;;;0.81;77.72;101898.31;4180244;28;20016;-64
2023/03/03 07:22:54;;;;;;;;;;;;;;;0.83;77.76;101903.53;4180813;28;20023;-64
2023/03/03 07:24:57;;;;;;;;;;;;;;;0.79;77.41;101905.53;4177297;28;20016;-64
2023/03/03 07:27:01;;;;;;;;;;;;;;;0.80;77.64;101904.59;4168672;28;20015;-64
2023/03/03 07:29:16;;;;;;;;;;;;;;;0.81;77.72;101908.94;4167168;28;20019;-64
2023/03/03 07:31:26;;;;;;;;;;;;;;;0.84;77.63;101908.78;4171873;28;21316;-64
2023/03/03 07:33:28;;;;;;;;;;;;;;;0.86;77.76;101912.22;4177015;28;20043;-64
2023/03/03 07:35:40;;;;;;;;;;;;;;;0.88;77.78;101920.97;4176303;28;20016;-64
2023/03/03 07:37:44;;;;;;;;;;;;;;;0.90;77.62;101920.88;4179625;28;20024;-64
2023/03/03 07:39:46;;;;;;;;;;;;;;;0.93;77.40;101918.06;4164623;28;20023;-64
2023/03/03 07:41:48;;;;;;;;;;;;;;;0.94;77.31;101914.47;4181246;28;20421;-64
2023/03/03 07:43:53;;;;;;;;;;;;;;;0.93;76.95;101920.72;4179972;28;20016;-65
2023/03/03 07:45:57;;;;;;;;;;;;;;;0.94;77.06;101921.56;4174990;28;20023;-64
2023/03/03 07:48:00;;;;;;;;;;;;;;;0.96;77.02;101928.53;4174112;28;20024;-64
2023/03/03 07:50:08;;;;;;;;;;;;;;;0.99;76.95;101920.38;4178938;28;20012;-64
2023/03/03 07:52:17;;;;;;;;;;;;;;;1.03;77.00;101924.56;4177626;28;20007;-64
2023/03/03 07:54:30;;;;;;;;;;;;;;;1.01;76.66;101928.28;4177045;28;20365;-64
2023/03/03 07:56:34;;;;;;;;;;;;;;;0.92;76.82;101928.78;4177396;28;20024;-64
2023/03/03 07:58:37;;;;;;;;;;;;;;;0.90;77.34;101932.38;4177248;28;20015;-64
2023/03/03 08:01:12;;;;;;;;;;;;;;;0.91;77.24;101925.28;4179472;28;20017;-63
2023/03/03 08:03:15;;;;;;;;;;;;;;;0.92;77.48;101932.28;4178667;28;19964;-64
2023/03/03 08:05:28;;;;;;;;;;;;;;;0.96;77.49;101933.84;4178664;28;20446;-64
2023/03/03 08:07:30;;;;;;;;;;;;;;;0.98;77.39;101931.09;4178553;28;19960;-63
2023/03/03 08:09:46;;;;;;;;;;;;;;;0.95;77.07;101931.28;4170470;28;20046;-64
2023/03/03 08:11:52;;;;;;;;;;;;;;;0.95;77.29;101931.28;4177460;28;20015;-64
2023/03/03 08:13:54;;;;;;;;;;;;;;;0.99;77.55;101932.84;4176283;28;20019;-64
2023/03/03 08:15:57;;;;;;;;;;;;;;;1.02;77.73;101929.97;4177606;28;20023;-64
2023/03/03 08:17:59;;;;;;;;;;;;;;;1.03;77.63;101934.34;4179212;28;20015;-65
2023/03/03 08:20:01;;;;;;;;;;;;;;;1.06;77.68;101932.38;4176786;28;20016;-62
2023/03/03 08:22:09;;;;;;;;;;;;;;;1.05;77.45;101938.66;4176228;28;20031;-62
2023/03/03 08:24:11;;;;;;;;;;;;;;;1.07;77.47;101930.59;4178362;28;20007;-64
2023/03/03 08:26:13;;;;;;;;;;;;;;;1.08;77.28;101930.50;4176158;28;20011;-63
2023/03/03 08:28:17;;;;;;;;;;;;;;;1.11;77.23;101932.13;4177385;28;20024;-64
2023/03/03 08:30:19;;;;;;;;;;;;;;;1.12;77.20;101933.00;4177710;28;20004;-62
2023/03/03 08:32:21;;;;;;;;;;;;;;;1.12;77.12;101920.53;4172410;28;20015;-63
2023/03/03 08:34:23;;;;;;;;;;;;;;;1.13;77.13;101918.72;4172556;28;20017;-64
2023/03/03 08:36:25;;;;;;;;;;;;;;;1.13;77.14;101930.25;4179271;28;20363;-65
2023/03/03 08:38:27;;;;;;;;;;;;;;;1.13;77.20;101929.38;4171178;28;20019;-64
2023/03/03 08:40:29;;;;;;;;;;;;;;;1.15;77.18;101928.34;4175592;28;20019;-64
2023/03/03 08:42:31;;;;;;;;;;;;;;;1.18;77.32;101924.66;4177052;28;20434;-64
2023/03/03 08:44:38;;;;;;;;;;;;;;;1.17;77.32;101923.78;4167665;28;20020;-65
2023/03/03 08:46:40;;;;;;;;;;;;;;;1.18;77.63;101930.00;4165487;28;19959;-64
2023/03/03 08:48:42;;;;;;;;;;;;;;;1.19;77.40;101935.22;4170426;28;20028;-65
2023/03/03 08:50:44;;;;;;;;;;;;;;;1.20;77.33;101928.09;4179052;28;20024;-65
2023/03/03 08:52:46;;;;;;;;;;;;;;;1.18;77.35;101932.66;4178427;28;20470;-64
2023/03/03 08:54:48;;;;;;;;;;;;;;;1.19;77.57;101931.69;4168343;28;20016;-65
2023/03/03 08:56:50;;;;;;;;;;;;;;;1.21;77.73;101935.16;4164055;28;20016;-65
2023/03/03 08:58:52;;;;;;;;;;;;;;;1.24;77.62;101938.47;4182417;28;20020;-64
2023/03/03 09:00:57;;;;;;;;;;;;;;;1.26;77.64;101935.72;4182349;28;20011;-63
2023/03/03 09:02:59;;;;;;;;;;;;;;;1.28;77.91;101933.84;4180250;28;20011;-64
2023/03/03 09:05:01;;;;;;;;;;;;;;;1.33;78.00;101942.41;4171136;28;20020;-64
2023/03/03 09:07:03;;;;;;;;;;;;;;;1.35;77.86;101935.22;4174833;28;20012;-64
2023/03/03 09:09:05;;;;;;;;;;;;;;;1.32;77.72;101922.06;4166678;28;19956;-63
2023/03/03 09:11:09;;;;;;;;;;;;;;;1.35;77.68;101929.00;4186338;28;20361;-63
2023/03/03 09:13:12;;;;;;;;;;;;;;;1.33;77.56;101929.09;4183036;28;20039;-64
2023/03/03 09:15:19;;;;;;;;;;;;;;;1.30;77.48;101918.66;4176601;28;20019;-65
2023/03/03 09:17:26;;;;;;;;;;;;;;;1.23;77.47;101928.78;4176481;28;20020;-64
2023/03/03 09:19:29;;;;;;;;;;;;;;;1.19;77.54;101931.69;4182062;28;20443;-65
2023/03/03 09:21:32;;;;;;;;;;;;;;;1.13;77.55;101932.03;4182267;28;20023;-65
2023/03/03 09:23:35;;;;;;;;;;;;;;;1.15;77.79;101935.50;4174897;28;20020;-65
2023/03/03 09:25:37;;;;;;;;;;;;;;;1.15;77.85;101931.00;4176776;28;20027;-65
2023/03/03 09:27:40;;;;;;;;;;;;;;;1.16;77.67;101922.09;4175234;28;20015;-65
2023/03/03 09:29:42;;;;;;;;;;;;;;;1.17;77.98;101914.97;4182146;28;20011;-65
2023/03/03 09:31:44;;;;;;;;;;;;;;;1.18;78.07;101924.66;4168345;28;20015;-65
2023/03/03 09:33:50;;;;;;;;;;;;;;;1.23;78.14;101930.59;4182179;28;20019;-65
2023/03/03 09:35:53;;;;;;;;;;;;;;;1.28;78.12;101925.84;4181978;28;20007;-64
2023/03/03 09:37:55;;;;;;;;;;;;;;;1.34;77.95;101928.16;4182136;28;20027;-64
2023/03/03 09:39:57;;;;;;;;;;;;;;;1.36;77.74;101923.59;4181535;28;20015;-64
2023/03/03 09:42:21;;;;;;;;;;;;;;;1.36;77.31;101920.09;4181961;28;20015;-64
2023/03/03 09:44:27;;;;;;;;;;;;;;;1.38;77.26;101924.38;4177068;28;20019;-65
2023/03/03 09:46:31;;;;;;;;;;;;;;;1.41;77.31;101931.31;4168856;28;20020;-65
2023/03/03 09:48:39;;;;;;;;;;;;;;;1.46;77.27;101936.38;4182077;28;20011;-64
2023/03/03 09:50:44;;;;;;;;;;;;;;;1.46;77.27;101928.41;4181502;28;20000;-64
2023/03/03 09:52:48;;;;;;;;;;;;;;;1.48;77.07;101924.72;4170590;28;20019;-65
2023/03/03 09:54:53;;;;;;;;;;;;;;;1.45;76.80;101924.88;4177457;28;20008;-65
2023/03/03 09:56:56;;;;;;;;;;;;;;;1.39;77.01;101936.72;4178094;28;20027;-65
2023/03/03 09:59:30;;;;;;;;;;;;;;;1.41;77.73;101931.31;4177035;28;20016;-64
2023/03/03 10:02:03;;;;;;;;;;;;;;;1.42;77.62;101919.72;4179820;28;21617;-64
2023/03/03 10:04:15;;;;;;;;;;;;;;;1.43;77.71;101924.97;4180592;28;20023;-65
2023/03/03 10:06:20;;;;;;;;;;;;;;;1.46;77.61;101923.94;4169504;28;19968;-65
2023/03/03 10:08:35;;;;;;;;;;;;;;;1.52;77.74;101922.72;4180449;28;20027;-65
2023/03/03 10:10:45;;;;;;;;;;;;;;;1.59;77.62;101921.41;4181094;28;20387;-65
2023/03/03 10:12:48;;;;;;;;;;;;;;;1.65;77.46;101926.41;4181930;28;20379;-65
2023/03/03 10:15:04;;;;;;;;;;;;;;;1.69;77.09;101924.41;4181222;28;20007;-65
2023/03/03 10:17:08;;;;;;;;;;;;;;;1.72;76.82;101927.72;4181345;28;19971;-65
2023/03/03 10:19:25;;;;;;;;;;;;;;;1.74;76.58;101928.53;4180618;28;20051;-64
2023/03/03 10:21:32;;;;;;;;;;;;;;;1.76;76.62;101926.63;4180502;28;20442;-65
2023/03/03 10:23:43;;;;;;;;;;;;;;;1.79;76.65;101928.25;4181552;28;20012;-65
2023/03/03 10:25:47;;;;;;;;;;;;;;;1.83;76.51;101923.59;4177397;28;19964;-65
2023/03/03 10:27:55;;;;;;;;;;;;;;;1.87;76.55;101915.31;4176746;28;20019;-65
2023/03/03 10:29:59;;;;;;;;;;;;;;;1.91;76.11;101922.19;4180752;28;20015;-65
2023/03/03 10:32:19;;;;;;;;;;;;;;;1.94;75.94;101916.69;4181564;28;20446;-64
2023/03/03 10:34:25;;;;;;;;;;;;;;;1.96;75.74;101911.25;4168756;28;20019;-65
2023/03/03 10:36:40;;;;;;;;;;;;;;;1.97;75.68;101905.84;4177148;28;20023;-64
2023/03/03 10:38:47;;;;;;;;;;;;;;;1.92;75.68;101907.91;4173561;28;20400;-64
2023/03/03 10:40:49;;;;;;;;;;;;;;;1.92;76.08;101915.03;4177877;28;19960;-65
2023/03/03 10:43:15;;;;;;;;;;;;;;;1.94;76.08;101918.47;4172410;28;19968;-65
2023/03/03 10:45:27;;;;;;;;;;;;;;;1.95;75.90;101913.03;4161150;28;20426;-65
2023/03/03 10:47:32;;;;;;;;;;;;;;;1.97;75.82;101913.84;4180926;28;20020;-63